Denver, Colorado
Traffic Map
Current Weather Conditions
Denver, Colorado
Broken Clouds
Broken Clouds
70°
Feels Like: 70°
Wind Chill: 70° Ceiling: 22000
Heat Index: 70° Visibility: 10mi
Dew Point: 49° Wind: 13mph
Humidity: 49% Direction: 170° (S)
Pressure: 30.32in Gusts: 0mph
Raw Report DataKBKF 300558Z 17011KT 10SM FEW120 BKN220 21/10 A3032 RMK AO2A SLP188 T02090097 10280 20207 51008
Traffic Incident Summary
Active as of:
Severity:
Category:
InformationThere was an issue retrieving the traffic information for this location. Please try a different location or try again shortly.
Advertisements
Track Severe Weather on mobile